Time;durP1;ratioP1;P1;durP2;ratioP2;P2;SDS_P1;SDS_P2;PMS_P1;PMS_P2;Temp;Humidity;BMP_temperature;BMP_pressure;BME280_temperature;BME280_humidity;BME280_pressure;Samples;Min_cycle;Max_cycle;Signal;HPM_P1;HPM_P2
2022/09/03 00:01:35;;;;;;;;;;;;;;;;;;5155966;27;20403;-57
2022/09/03 00:04:07;;;;;;;;;;;;;;;;;;5174688;27;19926;-58
2022/09/03 00:06:42;;;;;;;;;;;;;;;;;;5155744;27;20350;-57
2022/09/03 00:09:09;;;;;;;;;;;;;;;;;;5174493;27;19931;-58
2022/09/03 00:11:54;;;;;;;;;;;;;;;;;;5174895;27;19948;-54
2022/09/03 00:14:23;;;;;;;;;;;;;;;;;;5174214;27;19927;-55
2022/09/03 00:16:53;;;;;;;;;;;;;;;;;;5174654;27;19948;-58
2022/09/03 00:19:26;;;;;;;;;;;;;;;;;;5174261;27;19938;-58
2022/09/03 00:21:56;;;;;;;;;;;;;;;;;;5174690;27;20292;-58
2022/09/03 00:24:25;;;;;;;;;;;;;;;;;;5174513;27;20389;-58
2022/09/03 00:26:59;;;;;;;;;;;;;;;;;;5174498;27;20037;-58
2022/09/03 00:29:52;;;;;;;;;;;;;;;;;;5174471;27;19930;-56
2022/09/03 00:32:26;;;;;;;;;;;;;;;;;;5135393;27;19923;-53
2022/09/03 00:34:59;;;;;;;;;;;;;;;;;;5174294;27;20374;-57
2022/09/03 00:37:28;;;;;;;;;;;;;;;;;;5174479;27;19958;-54
2022/09/03 00:40:04;;;;;;;;;;;;;;;;;;5174053;27;19926;-56
2022/09/03 00:42:40;;;;;;;;;;;;;;;;;;5174393;27;19971;-56
2022/09/03 00:45:07;;;;;;;;;;;;;;;;;;5175630;27;19922;-57
2022/09/03 00:47:43;;;;;;;;;;;;;;;;;;5177754;27;19923;-57
2022/09/03 00:50:29;;;;;;;;;;;;;;;;;;5177792;27;20384;-56
2022/09/03 00:53:00;;;;;;;;;;;;;;;;;;5177619;27;19989;-57
2022/09/03 00:55:46;;;;;;;;;;;;;;;;;;5177834;27;20297;-52
2022/09/03 00:58:29;;;;;;;;;;;;;;;;;;5178003;27;19934;-53
2022/09/03 01:00:56;;;;;;;;;;;;;;;;;;5178092;27;20358;-55
2022/09/03 01:03:32;;;;;;;;;;;;;;;;;;5177605;27;20286;-55
2022/09/03 01:06:14;;;;;;;;;;;;;;;;;;5177720;27;19927;-52
2022/09/03 01:09:00;;;;;;;;;;;;;;;;;;5177373;27;20534;-55
2022/09/03 01:11:46;;;;;;;;;;;;;;;;;;5177381;27;19922;-56
2022/09/03 01:14:31;;;;;;;;;;;;;;;;;;5177667;27;19927;-58
2022/09/03 01:17:04;;;;;;;;;;;;;;;;;;5177408;27;19966;-54
2022/09/03 01:19:39;;;;;;;;;;;;;;;;;;5177552;27;19922;-56
2022/09/03 01:22:24;;;;;;;;;;;;;;;;;;5177454;27;19923;-56
2022/09/03 01:25:06;;;;;;;;;;;;;;;;;;5177247;27;20438;-54
2022/09/03 01:27:34;;;;;;;;;;;;;;;;;;5177296;27;20059;-57
2022/09/03 01:30:21;;;;;;;;;;;;;;;;;;5177182;27;19922;-54
2022/09/03 01:33:06;;;;;;;;;;;;;;;;;;5177286;27;20013;-54
2022/09/03 01:35:37;;;;;;;;;;;;;;;;;;5177087;27;19927;-56
2022/09/03 01:38:07;;;;;;;;;;;;;;;;;;5177065;27;19978;-52
2022/09/03 01:40:35;;;;;;;;;;;;;;;;;;5176963;27;19922;-55
2022/09/03 01:43:22;;;;;;;;;;;;;;;;;;5176724;27;20394;-52
2022/09/03 01:45:52;;;;;;;;;;;;;;;;;;5176831;27;19973;-54
2022/09/03 01:48:22;;;;;;;;;;;;;;;;;;5177146;27;19951;-55
2022/09/03 01:51:10;;;;;;;;;;;;;;;;;;5158710;27;19922;-55
2022/09/03 01:53:51;;;;;;;;;;;;;;;;;;5176664;27;20010;-53
2022/09/03 01:56:27;;;;;;;;;;;;;;;;;;5176009;27;20022;-53
2022/09/03 01:59:10;;;;;;;;;;;;;;;;;;5176522;27;19923;-55
2022/09/03 02:01:44;;;;;;;;;;;;;;;;;;5176691;27;20381;-55
2022/09/03 02:04:22;;;;;;;;;;;;;;;;;;5176560;27;19969;-55
2022/09/03 02:06:50;;;;;;;;;;;;;;;;;;5176203;27;19927;-54
2022/09/03 02:09:17;;;;;;;;;;;;;;;;;;5176553;27;19968;-52
2022/09/03 02:11:48;;;;;;;;;;;;;;;;;;5176403;27;19926;-52
2022/09/03 02:14:16;;;;;;;;;;;;;;;;;;5176139;27;20560;-55
2022/09/03 02:16:43;;;;;;;;;;;;;;;;;;5176518;27;19998;-54
2022/09/03 02:19:13;;;;;;;;;;;;;;;;;;5176048;27;19923;-58
2022/09/03 02:21:46;;;;;;;;;;;;;;;;;;5176374;27;19922;-56
2022/09/03 02:24:14;;;;;;;;;;;;;;;;;;5176037;27;19923;-54
2022/09/03 02:26:41;;;;;;;;;;;;;;;;;;5176203;27;19923;-55
2022/09/03 02:29:08;;;;;;;;;;;;;;;;;;5176020;27;20009;-54
2022/09/03 02:31:36;;;;;;;;;;;;;;;;;;5157249;27;20386;-53
2022/09/03 02:34:03;;;;;;;;;;;;;;;;;;5175972;27;19976;-53
2022/09/03 02:36:35;;;;;;;;;;;;;;;;;;5175923;27;19923;-56
2022/09/03 02:39:03;;;;;;;;;;;;;;;;;;5175939;27;19922;-53
2022/09/03 02:41:31;;;;;;;;;;;;;;;;;;5175713;27;19929;-55
2022/09/03 02:44:08;;;;;;;;;;;;;;;;;;5175509;27;19971;-53
2022/09/03 02:46:37;;;;;;;;;;;;;;;;;;5175605;27;19965;-53
2022/09/03 02:49:05;;;;;;;;;;;;;;;;;;5175719;27;19929;-56
2022/09/03 02:51:34;;;;;;;;;;;;;;;;;;5175869;27;19923;-56
2022/09/03 02:54:02;;;;;;;;;;;;;;;;;;5156786;27;20412;-52
2022/09/03 02:56:29;;;;;;;;;;;;;;;;;;5175389;27;19931;-56
2022/09/03 02:58:56;;;;;;;;;;;;;;;;;;5175561;27;20301;-56
2022/09/03 03:01:24;;;;;;;;;;;;;;;;;;5175652;27;20009;-55
2022/09/03 03:03:51;;;;;;;;;;;;;;;;;;5175232;27;19929;-53
2022/09/03 03:06:19;;;;;;;;;;;;;;;;;;5175600;27;19926;-55
2022/09/03 03:08:48;;;;;;;;;;;;;;;;;;5174354;27;19923;-55
2022/09/03 03:11:17;;;;;;;;;;;;;;;;;;5175181;27;19968;-55
2022/09/03 03:13:45;;;;;;;;;;;;;;;;;;5175050;27;20410;-54
2022/09/03 03:16:13;;;;;;;;;;;;;;;;;;5175448;27;19975;-54
2022/09/03 03:18:40;;;;;;;;;;;;;;;;;;5175176;27;19931;-55
2022/09/03 03:21:09;;;;;;;;;;;;;;;;;;5175186;27;19923;-56
2022/09/03 03:23:37;;;;;;;;;;;;;;;;;;5175020;27;20330;-55
2022/09/03 03:26:05;;;;;;;;;;;;;;;;;;5173938;27;19934;-56
2022/09/03 03:28:32;;;;;;;;;;;;;;;;;;5175060;27;19923;-53
2022/09/03 03:31:06;;;;;;;;;;;;;;;;;;5174922;27;19929;-54
2022/09/03 03:33:34;;;;;;;;;;;;;;;;;;5175044;27;19958;-53
2022/09/03 03:36:09;;;;;;;;;;;;;;;;;;5174611;27;19923;-58
2022/09/03 03:38:37;;;;;;;;;;;;;;;;;;5174993;27;19926;-55
2022/09/03 03:41:11;;;;;;;;;;;;;;;;;;5174976;27;19930;-55
2022/09/03 03:43:38;;;;;;;;;;;;;;;;;;5175338;27;19934;-53
2022/09/03 03:46:06;;;;;;;;;;;;;;;;;;5174710;27;19927;-54
2022/09/03 03:48:33;;;;;;;;;;;;;;;;;;5174607;27;19923;-56
2022/09/03 03:51:03;;;;;;;;;;;;;;;;;;5174888;27;19923;-51
2022/09/03 03:53:30;;;;;;;;;;;;;;;;;;5175158;27;19923;-53
2022/09/03 03:55:58;;;;;;;;;;;;;;;;;;5174772;27;19929;-55
2022/09/03 03:58:27;;;;;;;;;;;;;;;;;;5175099;27;20433;-53
2022/09/03 04:00:54;;;;;;;;;;;;;;;;;;5174784;27;20010;-54
2022/09/03 04:03:21;;;;;;;;;;;;;;;;;;5174572;27;20066;-56
2022/09/03 04:05:55;;;;;;;;;;;;;;;;;;5174667;27;19933;-54
2022/09/03 04:08:23;;;;;;;;;;;;;;;;;;5174452;27;19929;-54
2022/09/03 04:10:50;;;;;;;;;;;;;;;;;;5174825;27;20438;-52
2022/09/03 04:13:17;;;;;;;;;;;;;;;;;;5174664;27;19923;-56
2022/09/03 04:15:44;;;;;;;;;;;;;;;;;;5174439;27;19923;-54
2022/09/03 04:18:13;;;;;;;;;;;;;;;;;;5156017;27;19922;-58
2022/09/03 04:20:40;;;;;;;;;;;;;;;;;;5178475;27;20017;-55
2022/09/03 04:23:07;;;;;;;;;;;;;;;;;;5178696;27;20041;-58
2022/09/03 04:25:34;;;;;;;;;;;;;;;;;;5177980;27;19968;-58
2022/09/03 04:28:03;;;;;;;;;;;;;;;;;;5178368;27;20022;-55
2022/09/03 04:30:31;;;;;;;;;;;;;;;;;;5178511;27;20333;-56
2022/09/03 04:32:58;;;;;;;;;;;;;;;;;;5178464;27;19929;-54
2022/09/03 04:35:30;;;;;;;;;;;;;;;;;;5178247;27;19923;-53
2022/09/03 04:37:58;;;;;;;;;;;;;;;;;;5178413;27;19970;-52
2022/09/03 04:40:25;;;;;;;;;;;;;;;;;;5178092;27;19922;-54
2022/09/03 04:42:55;;;;;;;;;;;;;;;;;;5178241;27;19970;-52
2022/09/03 04:45:23;;;;;;;;;;;;;;;;;;5178182;27;20143;-52
2022/09/03 04:48:03;;;;;;;;;;;;;;;;;;5178093;27;20018;-53
2022/09/03 04:50:31;;;;;;;;;;;;;;;;;;5178182;27;20068;-51
2022/09/03 04:53:00;;;;;;;;;;;;;;;;;;5178302;27;20339;-58
2022/09/03 04:55:35;;;;;;;;;;;;;;;;;;5177512;27;19961;-54
2022/09/03 04:58:03;;;;;;;;;;;;;;;;;;5177836;27;20292;-52
2022/09/03 05:00:32;;;;;;;;;;;;;;;;;;5178056;27;19922;-54
2022/09/03 05:03:00;;;;;;;;;;;;;;;;;;5177920;27;19934;-52
2022/09/03 05:05:27;;;;;;;;;;;;;;;;;;5177794;27;20316;-58
2022/09/03 05:07:57;;;;;;;;;;;;;;;;;;5177550;27;20289;-55
2022/09/03 05:10:25;;;;;;;;;;;;;;;;;;5176439;27;20026;-49
2022/09/03 05:13:04;;;;;;;;;;;;;;;;;;5177511;27;20017;-52
2022/09/03 05:15:32;;;;;;;;;;;;;;;;;;5177652;27;19922;-53
2022/09/03 05:18:02;;;;;;;;;;;;;;;;;;5177488;27;20390;-54
2022/09/03 05:20:31;;;;;;;;;;;;;;;;;;5177302;27;20021;-56
2022/09/03 05:23:05;;;;;;;;;;;;;;;;;;5177346;27;19923;-54
2022/09/03 05:25:32;;;;;;;;;;;;;;;;;;5177444;27;19990;-53
2022/09/03 05:27:59;;;;;;;;;;;;;;;;;;5177163;27;19927;-53
2022/09/03 05:30:26;;;;;;;;;;;;;;;;;;5176290;27;19930;-53
2022/09/03 05:32:54;;;;;;;;;;;;;;;;;;5176954;27;19930;-55
2022/09/03 05:35:21;;;;;;;;;;;;;;;;;;5177342;27;19923;-56
2022/09/03 05:37:53;;;;;;;;;;;;;;;;;;5177476;27;19922;-42
2022/09/03 05:40:20;;;;;;;;;;;;;;;;;;5177359;27;20017;-42
2022/09/03 05:42:53;;;;;;;;;;;;;;;;;;5176933;27;19975;-42
2022/09/03 05:45:23;;;;;;;;;;;;;;;;;;5177039;27;19969;-42
2022/09/03 05:47:50;;;;;;;;;;;;;;;;;;5176703;27;19929;-47
2022/09/03 05:50:18;;;;;;;;;;;;;;;;;;5176844;27;20017;-48
2022/09/03 05:52:45;;;;;;;;;;;;;;;;;;5176628;27;19927;-42
2022/09/03 05:55:12;;;;;;;;;;;;;;;;;;5176616;27;20017;-45
2022/09/03 05:57:42;;;;;;;;;;;;;;;;;;5176613;27;20403;-41
2022/09/03 06:00:09;;;;;;;;;;;;;;;;;;5176439;27;20349;-40
2022/09/03 06:02:37;;;;;;;;;;;;;;;;;;5176832;27;19923;-40
2022/09/03 06:05:04;;;;;;;;;;;;;;;;;;5176717;27;20425;-45
2022/09/03 06:07:32;;;;;;;;;;;;;;;;;;5176320;27;19930;-45
2022/09/03 06:10:00;;;;;;;;;;;;;;;;;;5176279;27;19927;-42
2022/09/03 06:12:27;;;;;;;;;;;;;;;;;;5176200;27;19923;-43
2022/09/03 06:14:54;;;;;;;;;;;;;;;;;;5176261;27;19950;-42
2022/09/03 06:17:21;;;;;;;;;;;;;;;;;;5176107;27;20017;-42
2022/09/03 06:19:49;;;;;;;;;;;;;;;;;;5167280;27;20017;-42
2022/09/03 06:22:16;;;;;;;;;;;;;;;;;;5176203;27;20326;-42
2022/09/03 06:24:43;;;;;;;;;;;;;;;;;;5176019;27;19922;-40
2022/09/03 06:27:10;;;;;;;;;;;;;;;;;;5175970;27;19923;-43
2022/09/03 06:29:38;;;;;;;;;;;;;;;;;;5176403;27;19977;-42
2022/09/03 06:32:08;;;;;;;;;;;;;;;;;;5176214;27;19933;-42
2022/09/03 06:34:35;;;;;;;;;;;;;;;;;;5176142;27;20393;-43
2022/09/03 06:37:02;;;;;;;;;;;;;;;;;;5175851;27;19923;-52
2022/09/03 06:39:30;;;;;;;;;;;;;;;;;;5175780;27;19953;-42
2022/09/03 06:41:57;;;;;;;;;;;;;;;;;;5175745;27;19927;-42
2022/09/03 06:44:33;;;;;;;;;;;;;;;;;;5175880;27;20344;-49
2022/09/03 06:47:00;;;;;;;;;;;;;;;;;;5175760;27;19931;-42
2022/09/03 06:49:27;;;;;;;;;;;;;;;;;;5157472;27;19927;-42
2022/09/03 06:51:54;;;;;;;;;;;;;;;;;;5175558;27;20017;-42
2022/09/03 06:54:23;;;;;;;;;;;;;;;;;;5175418;27;20009;-42
2022/09/03 06:56:53;;;;;;;;;;;;;;;;;;5175474;27;19967;-41
2022/09/03 06:59:21;;;;;;;;;;;;;;;;;;5175392;27;20309;-42
2022/09/03 07:01:48;;;;;;;;;;;;;;;;;;5175465;27;19977;-45
2022/09/03 07:04:15;;;;;;;;;;;;;;;;;;5175729;27;19973;-41
2022/09/03 07:06:46;;;;;;;;;;;;;;;;;;5174937;27;19930;-42
2022/09/03 07:09:14;;;;;;;;;;;;;;;;;;5175143;27;19923;-45
2022/09/03 07:11:45;;;;;;;;;;;;;;;;;;5175083;27;20325;-40
2022/09/03 07:14:15;;;;;;;;;;;;;;;;;;5175220;27;19969;-42
2022/09/03 07:16:42;;;;;;;;;;;;;;;;;;5175156;27;19922;-43
2022/09/03 07:19:12;;;;;;;;;;;;;;;;;;5175359;27;19931;-45
2022/09/03 07:21:42;;;;;;;;;;;;;;;;;;5175371;27;20021;-43
2022/09/03 07:24:14;;;;;;;;;;;;;;;;;;5175201;27;20297;-48
2022/09/03 07:26:48;;;;;;;;;;;;;;;;;;5175341;27;19923;-44
2022/09/03 07:29:18;;;;;;;;;;;;;;;;;;5175040;27;19923;-47
2022/09/03 07:31:49;;;;;;;;;;;;;;;;;;5174654;27;19923;-41
2022/09/03 07:34:18;;;;;;;;;;;;;;;;;;5174692;27;19923;-42
2022/09/03 07:36:46;;;;;;;;;;;;;;;;;;5175053;27;19923;-42
2022/09/03 07:39:15;;;;;;;;;;;;;;;;;;5174935;27;20404;-43
2022/09/03 07:41:44;;;;;;;;;;;;;;;;;;5175303;27;20017;-41
2022/09/03 07:44:14;;;;;;;;;;;;;;;;;;5175148;27;19923;-41
2022/09/03 07:46:42;;;;;;;;;;;;;;;;;;5174997;27;19973;-41
2022/09/03 07:49:09;;;;;;;;;;;;;;;;;;5175218;27;19923;-41
2022/09/03 07:51:37;;;;;;;;;;;;;;;;;;5174738;27;19926;-41
2022/09/03 07:54:06;;;;;;;;;;;;;;;;;;5176398;27;19934;-41
2022/09/03 07:56:34;;;;;;;;;;;;;;;;;;5178985;27;20296;-42
2022/09/03 07:59:02;;;;;;;;;;;;;;;;;;5179145;27;19922;-41
2022/09/03 08:01:31;;;;;;;;;;;;;;;;;;5179148;27;19958;-42
2022/09/03 08:03:59;;;;;;;;;;;;;;;;;;5178692;27;19923;-44
2022/09/03 08:06:27;;;;;;;;;;;;;;;;;;5179009;27;19923;-43
2022/09/03 08:08:58;;;;;;;;;;;;;;;;;;5178047;27;19950;-41
2022/09/03 08:11:31;;;;;;;;;;;;;;;;;;5178537;27;20000;-41
2022/09/03 08:14:01;;;;;;;;;;;;;;;;;;5178718;27;19923;-45
2022/09/03 08:16:30;;;;;;;;;;;;;;;;;;5178759;27;19949;-42
2022/09/03 08:18:57;;;;;;;;;;;;;;;;;;5178360;27;20362;-41
2022/09/03 08:21:25;;;;;;;;;;;;;;;;;;5178335;27;19922;-42
2022/09/03 08:23:53;;;;;;;;;;;;;;;;;;5178640;27;19923;-42
2022/09/03 08:26:21;;;;;;;;;;;;;;;;;;5178416;27;19930;-42
2022/09/03 08:28:51;;;;;;;;;;;;;;;;;;5178659;27;20010;-43
2022/09/03 08:31:20;;;;;;;;;;;;;;;;;;5178652;27;20346;-41
2022/09/03 08:33:49;;;;;;;;;;;;;;;;;;5178304;27;20302;-41
2022/09/03 08:36:16;;;;;;;;;;;;;;;;;;5178230;27;19922;-43
2022/09/03 08:38:45;;;;;;;;;;;;;;;;;;5178649;27;20474;-41
2022/09/03 08:41:15;;;;;;;;;;;;;;;;;;5178340;27;19936;-43
2022/09/03 08:43:56;;;;;;;;;;;;;;;;;;5178061;27;19975;-42
2022/09/03 08:46:26;;;;;;;;;;;;;;;;;;5178217;27;19922;-43
2022/09/03 08:48:54;;;;;;;;;;;;;;;;;;5178170;27;19923;-41
2022/09/03 08:51:26;;;;;;;;;;;;;;;;;;5178116;27;20414;-43
2022/09/03 08:53:56;;;;;;;;;;;;;;;;;;5178007;27;19922;-41
2022/09/03 08:56:25;;;;;;;;;;;;;;;;;;5177949;27;19975;-44
2022/09/03 08:58:53;;;;;;;;;;;;;;;;;;5177863;27;19991;-43
2022/09/03 09:01:38;;;;;;;;;;;;;;;;;;5177579;27;19927;-43
2022/09/03 09:04:12;;;;;;;;;;;;;;;;;;5177646;27;20309;-43
2022/09/03 09:06:42;;;;;;;;;;;;;;;;;;5176087;27;20350;-46
2022/09/03 09:09:09;;;;;;;;;;;;;;;;;;5177553;27;19926;-41
2022/09/03 09:11:43;;;;;;;;;;;;;;;;;;5177584;27;19967;-41
2022/09/03 09:14:16;;;;;;;;;;;;;;;;;;5177844;27;20005;-43
2022/09/03 09:16:59;;;;;;;;;;;;;;;;;;5177754;27;19926;-43
2022/09/03 09:19:45;;;;;;;;;;;;;;;;;;5177283;27;19945;-41
2022/09/03 09:22:30;;;;;;;;;;;;;;;;;;5177275;27;19922;-42
2022/09/03 09:25:00;;;;;;;;;;;;;;;;;;5177069;27;19923;-45
2022/09/03 09:27:28;;;;;;;;;;;;;;;;;;5177590;27;19927;-41
2022/09/03 09:30:00;;;;;;;;;;;;;;;;;;5176753;27;19933;-42
2022/09/03 09:32:27;;;;;;;;;;;;;;;;;;5177274;27;19923;-42
2022/09/03 09:34:55;;;;;;;;;;;;;;;;;;5177282;27;19927;-42
2022/09/03 09:37:23;;;;;;;;;;;;;;;;;;5177135;27;19930;-43
2022/09/03 09:39:55;;;;;;;;;;;;;;;;;;5157139;27;20389;-42
2022/09/03 09:42:25;;;;;;;;;;;;;;;;;;5177040;27;19966;-42
2022/09/03 09:44:52;;;;;;;;;;;;;;;;;;5176965;27;19923;-42
2022/09/03 09:47:27;;;;;;;;;;;;;;;;;;5176632;27;19940;-44
2022/09/03 09:49:56;;;;;;;;;;;;;;;;;;5176843;27;20466;-42
2022/09/03 09:52:27;;;;;;;;;;;;;;;;;;5158302;27;20377;-43
2022/09/03 09:55:08;;;;;;;;;;;;;;;;;;5176973;27;20321;-42
2022/09/03 09:57:36;;;;;;;;;;;;;;;;;;5176606;27;19971;-40
2022/09/03 10:00:08;;;;;;;;;;;;;;;;;;5176669;27;20381;-42
2022/09/03 10:02:41;;;;;;;;;;;;;;;;;;5176639;27;19950;-46
2022/09/03 10:05:19;;;;;;;;;;;;;;;;;;5176643;27;19967;-46
2022/09/03 10:07:58;;;;;;;;;;;;;;;;;;5176307;27;20383;-40
2022/09/03 10:10:26;;;;;;;;;;;;;;;;;;5176646;27;20449;-45
2022/09/03 10:13:08;;;;;;;;;;;;;;;;;;5176342;27;19967;-43
2022/09/03 10:15:35;;;;;;;;;;;;;;;;;;5176473;27;19927;-47
2022/09/03 10:18:28;;;;;;;;;;;;;;;;;;5175861;27;19929;-42
2022/09/03 10:21:02;;;;;;;;;;;;;;;;;;5176631;27;20301;-46
2022/09/03 10:23:32;;;;;;;;;;;;;;;;;;5176331;27;19926;-44
2022/09/03 10:26:29;;;;;;;;;;;;;;;;;;5176090;27;20402;-43
2022/09/03 10:29:02;;;;;;;;;;;;;;;;;;5155817;27;19922;-48
2022/09/03 10:31:38;;;;;;;;;;;;;;;;;;5176430;27;20441;-47
2022/09/03 10:34:12;;;;;;;;;;;;;;;;;;5175852;27;19927;-44
2022/09/03 10:37:00;;;;;;;;;;;;;;;;;;5175950;27;19998;-48
2022/09/03 10:39:38;;;;;;;;;;;;;;;;;;5176305;27;20289;-48
2022/09/03 10:42:20;;;;;;;;;;;;;;;;;;5175514;27;19975;-41
2022/09/03 10:45:02;;;;;;;;;;;;;;;;;;5175754;27;19922;-45
2022/09/03 10:47:36;;;;;;;;;;;;;;;;;;5175588;27;19927;-42
2022/09/03 10:50:03;;;;;;;;;;;;;;;;;;5175603;27;19922;-44
2022/09/03 10:52:30;;;;;;;;;;;;;;;;;;5175716;27;19932;-41
2022/09/03 10:55:06;;;;;;;;;;;;;;;;;;5175661;27;19975;-46
2022/09/03 10:57:44;;;;;;;;;;;;;;;;;;5175519;27;20278;-42
2022/09/03 11:00:14;;;;;;;;;;;;;;;;;;5175210;27;19923;-41
2022/09/03 11:02:41;;;;;;;;;;;;;;;;;;5175526;27;19923;-41
2022/09/03 11:05:20;;;;;;;;;;;;;;;;;;5175468;27;20014;-42
2022/09/03 11:07:57;;;;;;;;;;;;;;;;;;5175140;27;19923;-41
2022/09/03 11:10:26;;;;;;;;;;;;;;;;;;5175126;27;20286;-43
2022/09/03 11:12:56;;;;;;;;;;;;;;;;;;5156749;27;19926;-41
2022/09/03 11:15:28;;;;;;;;;;;;;;;;;;5175395;27;19923;-40
2022/09/03 11:17:59;;;;;;;;;;;;;;;;;;5175230;27;20018;-41
2022/09/03 11:20:26;;;;;;;;;;;;;;;;;;5174721;27;19930;-40
2022/09/03 11:22:57;;;;;;;;;;;;;;;;;;5175201;27;20393;-46
2022/09/03 11:25:27;;;;;;;;;;;;;;;;;;5175275;27;19923;-42
2022/09/03 11:28:15;;;;;;;;;;;;;;;;;;5174442;27;19923;-42
2022/09/03 11:30:54;;;;;;;;;;;;;;;;;;5175257;27;19922;-41
2022/09/03 11:33:23;;;;;;;;;;;;;;;;;;5135559;27;19985;-41
2022/09/03 11:35:59;;;;;;;;;;;;;;;;;;5154106;27;20013;-43
2022/09/03 11:38:30;;;;;;;;;;;;;;;;;;5154030;27;19970;-43
2022/09/03 11:40:59;;;;;;;;;;;;;;;;;;5154113;27;20045;-43
2022/09/03 11:43:28;;;;;;;;;;;;;;;;;;5154199;27;19923;-41
2022/09/03 11:46:26;;;;;;;;;;;;;;;;;;5153599;27;19923;-43
2022/09/03 11:49:12;;;;;;;;;;;;;;;;;;5153867;27;19930;-42
2022/09/03 11:51:42;;;;;;;;;;;;;;;;;;5154072;27;19946;-43
2022/09/03 11:54:13;;;;;;;;;;;;;;;;;;5154022;27;19923;-42
2022/09/03 11:56:41;;;;;;;;;;;;;;;;;;5153924;27;19924;-45
2022/09/03 11:59:14;;;;;;;;;;;;;;;;;;5154109;27;19923;-41
2022/09/03 12:02:08;;;;;;;;;;;;;;;;;;5135524;27;19930;-41
2022/09/03 12:04:54;;;;;;;;;;;;;;;;;;5151635;27;19923;-42
2022/09/03 12:07:22;;;;;;;;;;;;;;;;;;5153785;27;19933;-41
2022/09/03 12:09:50;;;;;;;;;;;;;;;;;;5153854;27;19931;-41
2022/09/03 12:12:36;;;;;;;;;;;;;;;;;;5153962;27;19923;-41
2022/09/03 12:15:09;;;;;;;;;;;;;;;;;;5153390;27;19929;-41
2022/09/03 12:17:46;;;;;;;;;;;;;;;;;;5153968;27;19923;-43
2022/09/03 12:20:14;;;;;;;;;;;;;;;;;;5147802;27;19923;-46
2022/09/03 12:22:41;;;;;;;;;;;;;;;;;;5174642;27;20301;-48
2022/09/03 12:25:10;;;;;;;;;;;;;;;;;;5174644;27;19922;-41
2022/09/03 12:27:39;;;;;;;;;;;;;;;;;;5174523;27;20414;-41
2022/09/03 12:30:14;;;;;;;;;;;;;;;;;;5156105;27;19927;-44
2022/09/03 12:32:42;;;;;;;;;;;;;;;;;;5174576;27;20122;-42
2022/09/03 12:35:14;;;;;;;;;;;;;;;;;;5174619;27;19923;-42
2022/09/03 12:38:01;;;;;;;;;;;;;;;;;;5174329;27;19927;-46
2022/09/03 12:40:33;;;;;;;;;;;;;;;;;;5176669;27;20021;-42
2022/09/03 12:43:13;;;;;;;;;;;;;;;;;;5178216;27;19923;-46
2022/09/03 12:46:04;;;;;;;;;;;;;;;;;;5178055;27;20389;-42
2022/09/03 12:48:45;;;;;;;;;;;;;;;;;;5178207;27;20026;-46
2022/09/03 12:51:13;;;;;;;;;;;;;;;;;;5178292;27;20013;-45
2022/09/03 12:54:04;;;;;;;;;;;;;;;;;;5177838;27;19930;-47
2022/09/03 12:56:34;;;;;;;;;;;;;;;;;;5178049;27;19933;-44
2022/09/03 12:59:10;;;;;;;;;;;;;;;;;;5177896;27;20030;-43
2022/09/03 13:01:45;;;;;;;;;;;;;;;;;;5159564;27;20167;-43
2022/09/03 13:04:18;;;;;;;;;;;;;;;;;;5159843;27;19987;-42
2022/09/03 13:07:02;;;;;;;;;;;;;;;;;;5177870;27;19975;-41
2022/09/03 13:09:32;;;;;;;;;;;;;;;;;;5177731;27;19927;-40
2022/09/03 13:12:03;;;;;;;;;;;;;;;;;;5177776;27;19926;-42
2022/09/03 13:14:57;;;;;;;;;;;;;;;;;;5159094;27;19923;-43
2022/09/03 13:17:24;;;;;;;;;;;;;;;;;;5173590;27;19923;-42
2022/09/03 13:20:13;;;;;;;;;;;;;;;;;;5177390;27;19931;-41
2022/09/03 13:22:56;;;;;;;;;;;;;;;;;;5177609;27;19923;-41
2022/09/03 13:25:23;;;;;;;;;;;;;;;;;;5177439;27;20426;-43
2022/09/03 13:28:08;;;;;;;;;;;;;;;;;;5177168;27;19923;-42
2022/09/03 13:30:56;;;;;;;;;;;;;;;;;;5177554;27;19923;-42
2022/09/03 13:33:44;;;;;;;;;;;;;;;;;;5166576;27;19987;-47
2022/09/03 13:36:41;;;;;;;;;;;;;;;;;;5156152;27;19962;-41
2022/09/03 13:39:17;;;;;;;;;;;;;;;;;;5048609;27;20367;-42
2022/09/03 13:41:53;;;;;;;;;;;;;;;;;;5156242;27;20352;-43
2022/09/03 13:44:20;;;;;;;;;;;;;;;;;;5156175;27;19967;-40
2022/09/03 13:46:55;;;;;;;;;;;;;;;;;;5155859;27;19991;-40
2022/09/03 13:52:55;;;;;;;;;;;;;;;;;;5155689;27;20386;-48
2022/09/03 13:55:41;;;;;;;;;;;;;;;;;;5156134;27;19923;-42
2022/09/03 13:58:35;;;;;;;;;;;;;;;;;;5155827;27;20234;-44
2022/09/03 14:01:09;;;;;;;;;;;;;;;;;;5151167;27;19923;-49
2022/09/03 14:03:36;;;;;;;;;;;;;;;;;;5155681;27;19927;-40
2022/09/03 14:06:22;;;;;;;;;;;;;;;;;;5155678;27;19923;-49
2022/09/03 14:09:10;;;;;;;;;;;;;;;;;;5155534;27;20009;-44
2022/09/03 14:11:46;;;;;;;;;;;;;;;;;;5155618;27;20302;-45
2022/09/03 14:14:16;;;;;;;;;;;;;;;;;;5155865;27;19930;-43
2022/09/03 14:16:48;;;;;;;;;;;;;;;;;;5155851;27;19923;-41
2022/09/03 14:19:20;;;;;;;;;;;;;;;;;;5141128;27;19970;-41
2022/09/03 14:21:54;;;;;;;;;;;;;;;;;;5176401;27;19937;-41
2022/09/03 14:24:21;;;;;;;;;;;;;;;;;;5176149;27;20305;-43
2022/09/03 14:26:49;;;;;;;;;;;;;;;;;;5176184;27;19962;-40
2022/09/03 14:29:19;;;;;;;;;;;;;;;;;;5176050;27;19929;-45
2022/09/03 14:32:08;;;;;;;;;;;;;;;;;;5176171;27;19926;-45
2022/09/03 14:34:51;;;;;;;;;;;;;;;;;;5176001;27;19954;-47
2022/09/03 14:37:32;;;;;;;;;;;;;;;;;;5175872;27;19930;-41
2022/09/03 14:40:20;;;;;;;;;;;;;;;;;;5175899;27;19982;-41
2022/09/03 14:42:57;;;;;;;;;;;;;;;;;;5176195;27;19975;-41
2022/09/03 14:45:39;;;;;;;;;;;;;;;;;;5175908;27;19958;-45
2022/09/03 14:48:24;;;;;;;;;;;;;;;;;;5175488;27;19927;-41
2022/09/03 14:51:09;;;;;;;;;;;;;;;;;;5175688;27;19975;-44
2022/09/03 14:53:36;;;;;;;;;;;;;;;;;;5175523;27;20378;-41
2022/09/03 14:56:06;;;;;;;;;;;;;;;;;;5175608;27;19944;-41
2022/09/03 14:58:57;;;;;;;;;;;;;;;;;;5175574;27;19922;-41
2022/09/03 15:01:30;;;;;;;;;;;;;;;;;;5127565;27;20403;-49
2022/09/03 15:04:23;;;;;;;;;;;;;;;;;;5174599;27;19975;-41
2022/09/03 15:07:02;;;;;;;;;;;;;;;;;;5175501;27;19926;-41
2022/09/03 15:09:39;;;;;;;;;;;;;;;;;;5175494;27;19976;-47
2022/09/03 15:12:17;;;;;;;;;;;;;;;;;;5175408;27;20389;-46
2022/09/03 15:14:51;;;;;;;;;;;;;;;;;;5175398;27;19923;-43
2022/09/03 15:17:31;;;;;;;;;;;;;;;;;;5175487;27;20018;-43
2022/09/03 15:20:10;;;;;;;;;;;;;;;;;;5175310;27;20297;-48
2022/09/03 15:22:53;;;;;;;;;;;;;;;;;;5175076;27;19922;-42
2022/09/03 15:25:38;;;;;;;;;;;;;;;;;;5174954;27;20367;-45
2022/09/03 15:28:18;;;;;;;;;;;;;;;;;;5168349;27;19966;-43
2022/09/03 15:31:13;;;;;;;;;;;;;;;;;;5174552;27;19923;-41
2022/09/03 15:34:06;;;;;;;;;;;;;;;;;;5172494;27;19923;-43
2022/09/03 15:36:35;;;;;;;;;;;;;;;;;;5169108;27;19933;-40
2022/09/03 15:39:05;;;;;;;;;;;;;;;;;;5154315;27;20401;-42
2022/09/03 15:41:32;;;;;;;;;;;;;;;;;;5153589;27;19927;-43
2022/09/03 15:44:00;;;;;;;;;;;;;;;;;;5153915;27;19923;-41
2022/09/03 15:46:38;;;;;;;;;;;;;;;;;;5154042;27;19958;-43
2022/09/03 15:49:17;;;;;;;;;;;;;;;;;;5153337;27;20010;-43
2022/09/03 15:51:58;;;;;;;;;;;;;;;;;;5153645;27;20298;-47
2022/09/03 15:54:42;;;;;;;;;;;;;;;;;;5154259;27;19970;-40
2022/09/03 15:57:29;;;;;;;;;;;;;;;;;;5153832;27;20014;-43
2022/09/03 16:00:11;;;;;;;;;;;;;;;;;;5136860;27;19927;-43
2022/09/03 16:02:38;;;;;;;;;;;;;;;;;;5154056;27;20351;-41
2022/09/03 16:05:12;;;;;;;;;;;;;;;;;;5153785;27;19946;-43
2022/09/03 16:08:06;;;;;;;;;;;;;;;;;;5153601;27;19930;-42
2022/09/03 16:10:45;;;;;;;;;;;;;;;;;;5114953;27;19945;-40
2022/09/03 16:13:19;;;;;;;;;;;;;;;;;;5153811;27;20074;-42
2022/09/03 16:16:02;;;;;;;;;;;;;;;;;;5156491;27;19923;-46
2022/09/03 16:18:38;;;;;;;;;;;;;;;;;;5157724;27;19934;-42
2022/09/03 16:21:10;;;;;;;;;;;;;;;;;;5177366;27;19923;-42
2022/09/03 16:24:01;;;;;;;;;;;;;;;;;;5178709;27;19971;-43
2022/09/03 16:26:55;;;;;;;;;;;;;;;;;;5165561;27;20422;-43
2022/09/03 16:29:26;;;;;;;;;;;;;;;;;;5174523;27;19933;-43
2022/09/03 16:32:08;;;;;;;;;;;;;;;;;;5178353;27;19961;-40
2022/09/03 16:34:49;;;;;;;;;;;;;;;;;;5178380;27;20378;-43
2022/09/03 16:37:23;;;;;;;;;;;;;;;;;;5178471;27;20017;-41
2022/09/03 16:39:59;;;;;;;;;;;;;;;;;;5177934;27;20377;-45
2022/09/03 16:42:39;;;;;;;;;;;;;;;;;;5178429;27;19950;-41
2022/09/03 16:45:13;;;;;;;;;;;;;;;;;;5178266;27;20334;-43
2022/09/03 16:48:00;;;;;;;;;;;;;;;;;;5178324;27;20273;-42
2022/09/03 16:50:39;;;;;;;;;;;;;;;;;;5160980;27;19983;-41
2022/09/03 16:53:08;;;;;;;;;;;;;;;;;;5177865;27;19930;-41
2022/09/03 16:55:48;;;;;;;;;;;;;;;;;;5178314;27;19977;-42
2022/09/03 16:58:18;;;;;;;;;;;;;;;;;;5178059;27;19929;-47
2022/09/03 17:01:21;;;;;;;;;;;;;;;;;;5178188;27;20293;-45
2022/09/03 17:04:03;;;;;;;;;;;;;;;;;;5072983;28;19924;-43
2022/09/03 17:06:33;;;;;;;;;;;;;;;;;;5168603;27;19929;-47
2022/09/03 17:09:08;;;;;;;;;;;;;;;;;;5177460;27;20017;-41
2022/09/03 17:11:40;;;;;;;;;;;;;;;;;;5177335;27;20297;-46
2022/09/03 17:14:07;;;;;;;;;;;;;;;;;;5177796;27;20301;-43
2022/09/03 17:16:52;;;;;;;;;;;;;;;;;;5177840;27;20005;-46
2022/09/03 17:19:46;;;;;;;;;;;;;;;;;;5176995;27;19923;-41
2022/09/03 17:22:20;;;;;;;;;;;;;;;;;;5172787;27;19930;-45
2022/09/03 17:25:04;;;;;;;;;;;;;;;;;;5177226;27;20459;-43
2022/09/03 17:27:34;;;;;;;;;;;;;;;;;;5176224;27;19922;-43
2022/09/03 17:30:09;;;;;;;;;;;;;;;;;;5177439;27;19952;-46
2022/09/03 17:32:50;;;;;;;;;;;;;;;;;;5176649;27;20385;-44